Decoded Metar for KAFW (FT WORTH/ALLIANC in TX, USA) (IATA:AFW) | Meteo·Mobile Aviation Weather
aviador You're here:

KAFW Decoded Metar

FT WORTH/ALLIANC in TX, USA
Report Time2019-02-16 17:53:00
UTC Time2019-02-16 18:17:53
Flight Rules lifr LIFR
Wind310° at 04 kt
W.Decomp.*RWY 34: 3.2 kt HW 2.4 kt LCW
W.Rank310° ranks 26
Current wind is below 310° avg. (8.1)
Visibility4828 m
Phenomena:Mist
Clouds:Overcast 003 Hf
Expected CloudBase > 800 ft AGL from Temp-Dew spread
Ceiling300 ft
Temp01°C (ISA -12)
Dew Point-1°C (87% RH)
AAT-2.6°C
QNH1011 hPa
Density Alt-607 ft
Elevation764 ft
Report Wrong Elevation
Raw Report
KAFW 161753Z 31004KT 3SM BR OVC003 01/M01 A2986 RMK AO2 SLP123
T00061006 10011 20000 58015=

Extra information for KAFW:More info

Metar Taf Metar & Taf Last 4 Metars F.Rules Stats Wind Profile Meteogram Temp Stats Airport Information Weather charts Add Link Nearby VenuesMetar ALERT Operation Metar Decoded Social comments

AIRNAV info for KAFW